Weather at Mont-Tremblant / St-Jovite Airport

Public forecast

Using degrees Celsius for public forecast. Weather courtesy of forecast.io.

Closest aviation weather report (METAR) to Mont-Tremblant / St-Jovite Airport

Closest report is Montreal International (Mirabel) Airport, 36.5 nm (67.6 km) SE.

2024/05/22 21:00 (retrieved 31 minutes ago)

CYMX 222100Z 21007KT 130V260 20SM FEW040CB SCT250 30/19 A2970 RMK CB2CI1 CB TOPS S-W SLP059 DENSITY ALT 2300FT

Closest aviation forecast (TAF) to Mont-Tremblant / St-Jovite Airport

Closest forecast is Montreal International (Mirabel) Airport, 36.5 nm (67.6 km) SE.

2024/05/22 18:42 (retrieved 3 hours ago)

TAF TAF CYMX 221740Z 2218/2318 22005KT P6SM SCT240 FM221900 23008KT P6SM SCT060 FM222100 23010KT P6SM BKN060 TEMPO 2221/2224 P6SM -SHRA PROB30 2222/2224 VRB15G30KT 2SM TSRA BR BKN030 OVC060CB FM230000 23006KT P6SM SCT080 FM230200 24005KT P6SM -SHRA BKN080 PROB30 2302/2305 VRB20G30KT 2SM TSRA BKN030 OVC080CB FM230700 25005KT P6SM SCT060 SCT120 BECMG 2310/2312 23010G20KT FM231300 24010G20KT P6SM SKC RMK NXT FCST BY 230000Z